Time;durP1;ratioP1;P1;durP2;ratioP2;P2;SDS_P1;SDS_P2;PMS_P1;PMS_P2;Temp;Humidity;BMP_temperature;BMP_pressure;BME280_temperature;BME280_humidity;BME280_pressure;Samples;Min_cycle;Max_cycle;Signal;HPM_P1;HPM_P2
2021/09/22 00:00:18;;;;;;;1.70;1.60;;;12.00;69.40;;;;;;5013582;28;20045;-64
2021/09/22 00:02:44;;;;;;;2.05;1.83;;;12.10;69.50;;;;;;5013554;28;20288;-64
2021/09/22 00:05:11;;;;;;;1.60;1.50;;;12.10;69.40;;;;;;5013287;28;20073;-64
2021/09/22 00:07:36;;;;;;;1.70;1.60;;;12.10;69.40;;;;;;5013403;28;20026;-63
2021/09/22 00:10:05;;;;;;;1.60;1.50;;;12.20;69.50;;;;;;5013428;28;20119;-63
2021/09/22 00:12:30;;;;;;;1.70;1.60;;;12.20;69.50;;;;;;5013234;28;20028;-63
2021/09/22 00:14:56;;;;;;;1.63;1.52;;;12.20;69.40;;;;;;5013084;28;20388;-64
2021/09/22 00:17:22;;;;;;;1.10;1.10;;;12.20;69.20;;;;;;5013331;28;20374;-63
2021/09/22 00:19:47;;;;;;;1.98;1.55;;;12.20;69.20;;;;;;5012539;28;20350;-64
2021/09/22 00:22:13;;;;;;;1.45;1.40;;;12.20;69.20;;;;;;5012673;28;20056;-63
2021/09/22 00:24:38;;;;;;;1.95;1.40;;;12.20;69.20;;;;;;5013226;28;20022;-63
2021/09/22 00:27:04;;;;;;;1.02;1.02;;;12.20;69.20;;;;;;5012680;28;20476;-63
2021/09/22 00:29:30;;;;;;;2.05;1.90;;;12.20;69.20;;;;;;5013175;28;20436;-63
2021/09/22 00:31:56;;;;;;;1.98;1.75;;;12.20;69.20;;;;;;5013088;28;20109;-64
2021/09/22 00:34:21;;;;;;;1.20;1.20;;;12.10;69.10;;;;;;5013874;28;20099;-64
2021/09/22 00:36:48;;;;;;;1.48;1.38;;;12.00;69.10;;;;;;5020711;28;20037;-64
2021/09/22 00:39:15;;;;;;;1.30;1.20;;;12.00;69.30;;;;;;5013083;28;20062;-63
2021/09/22 00:41:41;;;;;;;1.67;1.42;;;12.00;69.40;;;;;;5013112;28;20033;-63
2021/09/22 00:44:07;;;;;;;1.27;1.27;;;12.00;69.50;;;;;;5012733;28;20026;-64
2021/09/22 00:46:33;;;;;;;1.80;1.70;;;12.00;69.60;;;;;;5013120;28;20053;-63
2021/09/22 00:48:59;;;;;;;1.42;1.23;;;12.00;69.60;;;;;;5013153;28;20512;-64
2021/09/22 00:51:25;;;;;;;2.13;1.80;;;12.00;69.40;;;;;;5012929;28;20381;-63
2021/09/22 00:53:51;;;;;;;1.65;1.55;;;11.90;69.50;;;;;;5012615;28;20030;-64
2021/09/22 00:56:17;;;;;;;2.70;2.33;;;11.90;69.60;;;;;;5012880;28;20033;-64
2021/09/22 00:58:43;;;;;;;1.33;1.30;;;11.90;69.70;;;;;;5013087;28;20105;-64
2021/09/22 01:01:08;;;;;;;1.30;1.30;;;11.90;69.70;;;;;;5015159;28;20065;-64
2021/09/22 01:03:34;;;;;;;1.98;1.88;;;11.90;69.70;;;;;;5016656;28;20065;-64
2021/09/22 01:06:01;;;;;;;1.40;1.30;;;11.90;69.80;;;;;;5016566;28;20037;-64
2021/09/22 01:08:29;;;;;;;1.40;1.30;;;11.90;69.80;;;;;;5016140;28;20033;-63
2021/09/22 01:10:55;;;;;;;1.17;1.17;;;12.00;69.90;;;;;;5016243;28;20113;-64
2021/09/22 01:13:21;;;;;;;1.23;1.20;;;12.00;69.90;;;;;;5015121;28;20029;-63
2021/09/22 01:15:48;;;;;;;1.55;1.45;;;12.00;69.80;;;;;;4997538;28;20439;-64
2021/09/22 01:18:19;;;;;;;1.48;1.40;;;12.00;69.70;;;;;;4996777;28;20080;-64
2021/09/22 01:20:46;;;;;;;;;;;12.10;69.80;;;;;;4997119;28;20045;-64
2021/09/22 01:23:12;;;;;;;1.60;1.50;;;12.00;69.60;;;;;;4996882;28;19913;-64
2021/09/22 01:25:41;;;;;;;1.27;1.27;;;12.00;69.60;;;;;;5015430;28;20030;-64
2021/09/22 01:28:07;;;;;;;1.70;1.55;;;12.10;69.60;;;;;;5016231;28;20034;-64
2021/09/22 01:30:34;;;;;;;1.42;1.33;;;12.00;69.60;;;;;;5016189;28;20029;-64
2021/09/22 01:33:02;;;;;;;1.55;1.45;;;12.10;69.60;;;;;;5016015;28;20379;-64
2021/09/22 01:35:42;;;;;;;1.30;1.30;;;12.10;69.70;;;;;;5015979;28;20041;-64
2021/09/22 01:38:12;;;;;;;1.48;1.38;;;12.10;69.70;;;;;;5015898;28;20109;-64
2021/09/22 01:40:38;;;;;;;1.90;1.80;;;12.10;69.80;;;;;;5015791;28;20037;-64
2021/09/22 01:43:05;;;;;;;1.60;1.50;;;12.10;69.90;;;;;;5014569;28;20034;-64
2021/09/22 01:45:31;;;;;;;1.63;1.52;;;12.10;69.60;;;;;;5015869;28;20362;-64
2021/09/22 01:47:58;;;;;;;1.50;1.40;;;12.00;69.60;;;;;;5015885;28;20026;-64
2021/09/22 01:50:24;;;;;;;2.55;1.67;;;12.00;69.60;;;;;;5016052;28;20033;-63
2021/09/22 01:52:52;;;;;;;1.42;1.33;;;12.00;69.70;;;;;;5015720;28;20030;-63
2021/09/22 01:55:20;;;;;;;1.48;1.30;;;12.00;69.70;;;;;;5015963;28;20567;-63
2021/09/22 01:57:47;;;;;;;1.60;1.50;;;12.00;69.80;;;;;;5015183;28;20029;-63
2021/09/22 02:00:13;;;;;;;1.23;1.23;;;12.10;69.80;;;;;;5015608;28;20022;-63
2021/09/22 02:02:39;;;;;;;1.55;1.45;;;12.10;69.80;;;;;;5015574;28;20509;-63
2021/09/22 02:05:05;;;;;;;1.70;1.60;;;12.00;69.80;;;;;;5015581;28;20105;-64
2021/09/22 02:07:32;;;;;;;1.60;1.48;;;12.00;69.90;;;;;;5015515;28;20040;-63
2021/09/22 02:09:59;;;;;;;2.75;1.48;;;12.00;69.90;;;;;;5015747;28;20378;-64
2021/09/22 02:12:26;;;;;;;1.23;1.23;;;12.00;70.00;;;;;;5013901;28;20021;-64
2021/09/22 02:14:52;;;;;;;1.40;1.30;;;12.00;70.10;;;;;;5015234;28;20034;-64
2021/09/22 02:17:17;;;;;;;1.90;1.58;;;12.00;70.10;;;;;;5015149;28;20036;-64
2021/09/22 02:19:43;;;;;;;1.38;1.38;;;12.00;70.00;;;;;;5015103;28;20038;-64
2021/09/22 02:22:09;;;;;;;1.70;1.60;;;12.10;70.00;;;;;;5015140;28;20049;-64
2021/09/22 02:24:37;;;;;;;1.83;1.73;;;12.10;70.00;;;;;;5015289;28;20111;-64
2021/09/22 02:27:03;;;;;;;1.65;1.55;;;12.10;70.00;;;;;;5014957;28;20037;-63
2021/09/22 02:29:29;;;;;;;1.50;1.40;;;12.10;69.90;;;;;;5012799;28;20029;-64
2021/09/22 02:31:55;;;;;;;1.70;1.60;;;12.10;69.80;;;;;;5013054;28;20030;-63
2021/09/22 02:34:20;;;;;;;1.83;1.73;;;12.10;69.70;;;;;;5012099;28;20384;-63
2021/09/22 02:36:46;;;;;;;1.90;1.80;;;12.10;69.70;;;;;;5023989;28;20113;-63
2021/09/22 02:39:12;;;;;;;1.60;1.50;;;12.10;69.80;;;;;;5014679;28;20052;-63
2021/09/22 02:41:37;;;;;;;2.25;1.65;;;12.10;69.90;;;;;;5012446;28;20034;-64
2021/09/22 02:44:04;;;;;;;1.52;1.42;;;12.10;70.50;;;;;;4995269;28;20026;-64
2021/09/22 02:46:30;;;;;;;1.90;1.80;;;12.10;69.80;;;;;;5010226;28;20061;-64
2021/09/22 02:48:56;;;;;;;1.65;1.55;;;12.10;69.70;;;;;;5014647;28;20069;-64
2021/09/22 02:51:22;;;;;;;1.80;1.70;;;12.10;69.70;;;;;;5014628;28;20022;-64
2021/09/22 02:53:47;;;;;;;2.20;2.00;;;12.10;69.70;;;;;;5014815;28;20030;-63
2021/09/22 02:56:13;;;;;;;2.53;2.33;;;12.10;69.60;;;;;;5014519;28;20037;-63
2021/09/22 02:58:38;;;;;;;1.77;1.67;;;12.20;69.60;;;;;;5014476;28;20053;-63
2021/09/22 03:01:04;;;;;;;1.75;1.65;;;12.20;69.60;;;;;;5013747;28;20071;-63
2021/09/22 03:03:31;;;;;;;2.10;1.92;;;12.20;69.60;;;;;;5014460;28;20073;-63
2021/09/22 03:05:57;;;;;;;3.75;1.80;;;12.10;69.50;;;;;;5014357;28;20113;-64
2021/09/22 03:08:23;;;;;;;2.20;2.00;;;12.10;69.40;;;;;;5014344;28;20097;-64
2021/09/22 03:10:49;;;;;;;1.60;1.52;;;12.10;69.50;;;;;;5014083;28;20029;-64
2021/09/22 03:13:14;;;;;;;1.70;1.60;;;12.00;69.40;;;;;;5013844;28;20030;-63
2021/09/22 03:15:40;;;;;;;2.33;2.20;;;12.00;69.50;;;;;;5014159;28;20066;-64
2021/09/22 03:18:06;;;;;;;1.95;1.85;;;11.90;69.60;;;;;;5013784;28;20021;-64
2021/09/22 03:20:31;;;;;;;1.98;1.77;;;11.90;69.60;;;;;;5014112;28;20088;-63
2021/09/22 03:22:57;;;;;;;2.30;2.10;;;11.90;69.80;;;;;;5013617;28;20033;-64
2021/09/22 03:25:23;;;;;;;3.08;2.20;;;11.90;69.90;;;;;;5014111;28;20041;-63
2021/09/22 03:27:49;;;;;;;3.33;1.90;;;11.90;69.90;;;;;;5014091;28;20038;-63
2021/09/22 03:30:15;;;;;;;2.33;2.10;;;11.90;69.80;;;;;;5014010;28;20030;-64
2021/09/22 03:32:41;;;;;;;1.83;1.73;;;11.90;69.70;;;;;;5013986;28;20485;-64
2021/09/22 03:35:07;;;;;;;2.08;1.98;;;11.90;69.60;;;;;;5013520;28;20061;-64
2021/09/22 03:37:33;;;;;;;2.20;2.00;;;11.90;69.60;;;;;;5014015;28;20075;-64
2021/09/22 03:39:58;;;;;;;2.25;2.00;;;11.90;69.80;;;;;;5013685;28;20074;-64
2021/09/22 03:42:24;;;;;;;1.83;1.73;;;11.90;69.70;;;;;;5003134;28;20022;-64
2021/09/22 03:44:50;;;;;;;2.17;1.92;;;11.90;69.80;;;;;;4994202;28;20030;-64
2021/09/22 03:47:16;;;;;;;2.17;1.98;;;11.90;69.80;;;;;;4994134;28;20470;-64
2021/09/22 03:49:41;;;;;;;2.55;2.00;;;11.90;69.80;;;;;;4994228;28;20473;-64
2021/09/22 03:52:07;;;;;;;1.98;1.88;;;11.90;69.80;;;;;;4994135;28;20022;-64
2021/09/22 03:54:33;;;;;;;2.10;1.90;;;11.90;69.80;;;;;;4993940;28;20026;-64
2021/09/22 03:56:58;;;;;;;3.13;2.10;;;11.90;69.80;;;;;;4993844;28;20089;-64
2021/09/22 03:59:24;;;;;;;5.07;2.50;;;11.90;69.80;;;;;;4993933;28;20432;-64
2021/09/22 04:01:49;;;;;;;2.50;2.00;;;11.90;69.90;;;;;;4993883;28;20113;-64
2021/09/22 04:04:15;;;;;;;2.30;2.10;;;11.90;69.80;;;;;;4993701;28;20026;-64
2021/09/22 04:06:41;;;;;;;2.05;1.90;;;11.90;69.80;;;;;;5001647;28;20474;-64
2021/09/22 04:09:10;;;;;;;2.63;2.25;;;12.00;69.80;;;;;;5011276;28;20030;-64
2021/09/22 04:11:37;;;;;;;2.72;1.90;;;12.00;69.70;;;;;;5011550;28;20141;-64
2021/09/22 04:14:04;;;;;;;3.00;2.20;;;12.00;69.80;;;;;;4993704;28;20394;-64
2021/09/22 04:16:30;;;;;;;1.67;1.50;;;12.00;69.70;;;;;;4993667;28;20030;-64
2021/09/22 04:18:55;;;;;;;1.75;1.60;;;12.00;69.60;;;;;;4993566;28;20109;-64
2021/09/22 04:21:21;;;;;;;2.20;1.70;;;12.10;69.70;;;;;;4993651;28;20432;-63
2021/09/22 04:23:47;;;;;;;1.70;1.60;;;12.20;69.60;;;;;;4993656;28;20033;-64
2021/09/22 04:26:12;;;;;;;2.55;2.10;;;12.20;69.60;;;;;;5004477;28;20036;-64
2021/09/22 04:28:38;;;;;;;2.33;2.00;;;12.20;69.40;;;;;;5012991;28;20036;-64
2021/09/22 04:31:04;;;;;;;1.80;1.70;;;12.30;69.30;;;;;;5013175;28;20482;-64
2021/09/22 04:33:30;;;;;;;2.85;2.10;;;12.30;69.10;;;;;;5013101;28;20121;-64
2021/09/22 04:35:56;;;;;;;2.35;2.15;;;12.30;69.00;;;;;;5017012;28;20034;-64
2021/09/22 04:38:22;;;;;;;2.35;2.15;;;12.30;68.90;;;;;;5016220;28;20103;-64
2021/09/22 04:40:49;;;;;;;1.90;1.80;;;12.30;69.00;;;;;;5016921;28;20026;-64
2021/09/22 04:43:14;;;;;;;2.55;2.10;;;12.30;69.00;;;;;;5016056;28;20109;-64
2021/09/22 04:45:42;;;;;;;3.72;2.17;;;12.30;68.80;;;;;;5016952;28;20068;-64
2021/09/22 04:48:08;;;;;;;2.75;2.30;;;12.30;68.90;;;;;;5017039;28;20474;-64
2021/09/22 04:50:34;;;;;;;2.35;2.15;;;12.40;68.90;;;;;;5017157;28;20041;-64
2021/09/22 04:52:59;;;;;;;3.72;2.38;;;12.40;68.90;;;;;;5016766;28;20501;-64
2021/09/22 04:55:25;;;;;;;2.20;2.00;;;12.40;68.90;;;;;;5016463;28;20030;-63
2021/09/22 04:57:51;;;;;;;4.07;2.60;;;12.40;68.40;;;;;;5011618;28;20057;-63
2021/09/22 05:00:17;;;;;;;2.15;1.88;;;12.30;68.50;;;;;;5021829;28;20034;-63
2021/09/22 05:02:43;;;;;;;3.38;2.15;;;12.30;68.60;;;;;;5008038;28;20038;-63
2021/09/22 05:05:09;;;;;;;2.15;2.05;;;12.30;68.60;;;;;;5016288;28;20038;-63
2021/09/22 05:07:35;;;;;;;2.55;2.35;;;12.30;68.70;;;;;;5014544;28;20481;-63
2021/09/22 05:10:00;;;;;;;2.58;2.28;;;12.20;68.70;;;;;;5016017;28;20025;-64
2021/09/22 05:12:26;;;;;;;2.72;2.33;;;12.20;68.90;;;;;;5015419;28;20053;-64
2021/09/22 05:14:52;;;;;;;3.17;1.80;;;12.20;68.90;;;;;;5015247;28;20421;-64
2021/09/22 05:17:17;;;;;;;2.53;2.33;;;12.20;69.10;;;;;;5010139;28;20120;-64
2021/09/22 05:19:43;;;;;;;2.45;1.90;;;12.20;69.00;;;;;;5014404;28;20087;-64
2021/09/22 05:22:08;;;;;;;3.15;2.10;;;12.20;69.00;;;;;;5013790;28;20080;-64
2021/09/22 05:24:34;;;;;;;3.63;2.30;;;12.20;69.00;;;;;;4998737;28;20033;-64
2021/09/22 05:27:00;;;;;;;2.95;2.30;;;12.30;68.90;;;;;;5007672;28;20069;-64
2021/09/22 05:29:25;;;;;;;2.42;2.22;;;12.30;68.60;;;;;;5010270;28;20029;-64
2021/09/22 05:31:51;;;;;;;2.45;2.25;;;12.30;68.50;;;;;;5011648;28;20026;-64
2021/09/22 05:34:17;;;;;;;2.22;2.10;;;12.30;68.40;;;;;;5011445;28;20032;-64
2021/09/22 05:36:43;;;;;;;3.00;2.65;;;12.20;68.40;;;;;;5010407;28;20068;-64
2021/09/22 05:39:08;;;;;;;2.50;2.30;;;12.30;68.60;;;;;;5007480;28;21440;-64
2021/09/22 05:41:34;;;;;;;3.22;2.13;;;12.30;68.50;;;;;;5008264;28;20045;-64
2021/09/22 05:43:59;;;;;;;3.40;2.33;;;12.30;68.50;;;;;;5010392;28;20026;-64
2021/09/22 05:46:25;;;;;;;3.00;2.70;;;12.30;68.50;;;;;;5003992;28;20036;-64
2021/09/22 05:48:51;;;;;;;2.35;2.10;;;12.30;68.30;;;;;;5005207;28;20038;-64
2021/09/22 05:51:16;;;;;;;2.50;2.30;;;12.30;68.30;;;;;;5005332;28;20120;-64
2021/09/22 05:53:44;;;;;;;1.83;1.73;;;12.30;68.40;;;;;;5006431;28;20118;-64
2021/09/22 05:56:10;;;;;;;3.65;3.03;;;12.30;68.40;;;;;;5005613;28;20488;-64
2021/09/22 05:58:36;;;;;;;2.50;2.22;;;12.30;68.40;;;;;;5004540;28;20029;-64
2021/09/22 06:01:02;;;;;;;2.60;1.88;;;12.40;68.20;;;;;;5014381;28;20493;-64
2021/09/22 06:03:28;;;;;;;2.80;2.30;;;12.40;68.20;;;;;;5012492;28;20028;-64
2021/09/22 06:05:54;;;;;;;2.55;2.35;;;12.40;68.00;;;;;;5010160;28;20481;-64
2021/09/22 06:08:20;;;;;;;2.30;2.10;;;12.40;68.10;;;;;;4999715;28;20113;-64
2021/09/22 06:10:46;;;;;;;2.83;2.50;;;12.50;68.00;;;;;;5004740;28;20924;-64
2021/09/22 06:13:11;;;;;;;2.45;2.25;;;12.50;68.00;;;;;;5008032;28;20119;-64
2021/09/22 06:15:38;;;;;;;2.55;2.35;;;12.60;67.90;;;;;;5010865;28;20061;-64
2021/09/22 06:18:03;;;;;;;2.55;2.35;;;12.60;67.90;;;;;;5008021;28;21324;-64
2021/09/22 06:20:29;;;;;;;3.00;2.45;;;12.60;67.80;;;;;;5010717;28;20051;-64
2021/09/22 06:22:55;;;;;;;2.95;2.42;;;12.70;67.80;;;;;;5005936;28;20469;-64
2021/09/22 06:25:22;;;;;;;2.67;2.47;;;12.70;67.80;;;;;;5008855;28;20085;-64
2021/09/22 06:27:48;;;;;;;3.35;2.90;;;12.70;67.70;;;;;;5008959;28;20037;-64
2021/09/22 06:30:14;;;;;;;3.30;3.00;;;12.70;67.50;;;;;;5004955;28;20724;-64
2021/09/22 06:32:40;;;;;;;4.47;3.13;;;12.80;67.40;;;;;;5001670;28;20061;-62
2021/09/22 06:35:07;;;;;;;3.60;3.30;;;12.70;67.50;;;;;;5001249;28;20026;-62
2021/09/22 06:37:33;;;;;;;3.63;3.22;;;12.70;67.30;;;;;;4999327;28;20030;-62
2021/09/22 06:39:58;;;;;;;2.97;2.72;;;12.70;67.40;;;;;;5002185;28;20391;-62
2021/09/22 06:42:24;;;;;;;3.63;2.95;;;12.70;67.60;;;;;;5006905;28;20455;-62
2021/09/22 06:44:50;;;;;;;4.25;3.20;;;12.70;67.60;;;;;;5003733;28;20568;-60
2021/09/22 06:47:15;;;;;;;2.95;2.72;;;12.70;67.50;;;;;;5004369;28;20034;-61
2021/09/22 06:49:41;;;;;;;3.38;2.90;;;12.70;67.40;;;;;;5005850;28;20523;-61
2021/09/22 06:52:07;;;;;;;4.15;2.70;;;12.70;67.30;;;;;;5005734;28;20034;-61
2021/09/22 06:54:33;;;;;;;2.58;2.35;;;12.70;67.30;;;;;;5004123;28;20033;-62
2021/09/22 06:57:00;;;;;;;3.10;2.80;;;12.70;67.30;;;;;;5009242;28;20069;-62
2021/09/22 06:59:26;;;;;;;2.58;2.38;;;12.70;67.00;;;;;;5008076;28;20049;-61
2021/09/22 07:01:51;;;;;;;2.67;2.47;;;12.70;67.00;;;;;;5002161;28;20026;-62
2021/09/22 07:04:17;;;;;;;3.60;2.78;;;12.70;67.10;;;;;;5004617;28;20030;-63
2021/09/22 07:06:43;;;;;;;3.60;2.65;;;12.70;67.20;;;;;;5003998;28;20072;-62
2021/09/22 07:09:09;;;;;;;3.22;2.92;;;12.70;67.20;;;;;;5006391;28;20057;-62
2021/09/22 07:11:35;;;;;;;2.75;2.55;;;12.70;67.00;;;;;;5007127;28;20449;-62
2021/09/22 07:14:01;;;;;;;3.15;2.85;;;12.80;67.10;;;;;;5000465;28;20041;-61
2021/09/22 07:16:27;;;;;;;3.22;2.90;;;12.80;66.90;;;;;;4999425;28;20128;-62
2021/09/22 07:18:53;;;;;;;4.57;3.22;;;12.90;66.80;;;;;;5007140;28;20046;-61
2021/09/22 07:21:18;;;;;;;4.32;3.80;;;12.90;66.90;;;;;;4992858;28;20068;-61
2021/09/22 07:23:44;;;;;;;7.38;6.30;;;12.90;66.80;;;;;;4996086;28;20152;-60
2021/09/22 07:26:11;;;;;;;23.60;18.90;;;13.00;66.80;;;;;;4996704;28;20055;-62
2021/09/22 07:28:37;;;;;;;14.25;11.45;;;13.10;66.70;;;;;;4992434;28;20452;-61
2021/09/22 07:31:03;;;;;;;13.52;9.68;;;13.10;66.50;;;;;;4987104;28;20040;-60
2021/09/22 07:33:29;;;;;;;6.68;5.72;;;13.20;66.40;;;;;;4999644;28;20119;-62
2021/09/22 07:35:56;;;;;;;6.32;5.43;;;13.20;66.30;;;;;;5003289;28;20493;-62
2021/09/22 07:38:22;;;;;;;9.63;6.90;;;13.20;66.30;;;;;;4997569;28;20119;-63
2021/09/22 07:40:49;;;;;;;13.35;10.98;;;13.20;66.10;;;;;;4995956;28;20123;-62
2021/09/22 07:43:15;;;;;;;7.95;6.72;;;13.20;66.10;;;;;;4989515;28;20033;-61
2021/09/22 07:45:40;;;;;;;9.30;7.32;;;13.20;66.20;;;;;;4999345;28;20037;-62
2021/09/22 07:48:06;;;;;;;8.73;6.18;;;13.20;66.30;;;;;;4999970;28;20120;-63
2021/09/22 07:50:33;;;;;;;7.20;5.53;;;13.30;66.20;;;;;;5005663;28;20473;-62
2021/09/22 07:52:59;;;;;;;5.65;4.70;;;13.30;66.10;;;;;;5004430;28;20069;-62
2021/09/22 07:55:25;;;;;;;5.93;5.03;;;13.30;66.10;;;;;;4998143;28;20120;-61
2021/09/22 07:57:54;;;;;;;5.75;4.20;;;13.30;65.90;;;;;;4988350;28;20049;-62
2021/09/22 08:00:21;;;;;;;4.68;3.92;;;13.40;65.80;;;;;;4993990;28;20034;-61
2021/09/22 08:02:47;;;;;;;4.40;3.67;;;13.40;65.60;;;;;;4997564;28;20046;-62
2021/09/22 08:05:13;;;;;;;4.28;3.80;;;13.40;65.40;;;;;;4998076;28;20032;-63
2021/09/22 08:07:39;;;;;;;4.70;3.90;;;13.40;65.20;;;;;;5000182;28;20038;-62
2021/09/22 08:10:05;;;;;;;4.55;3.50;;;13.40;65.30;;;;;;5002104;28;20089;-63
2021/09/22 08:12:31;;;;;;;4.93;3.80;;;13.40;65.50;;;;;;4997479;28;20030;-61
2021/09/22 08:14:57;;;;;;;6.75;4.00;;;13.50;65.10;;;;;;5000646;28;20030;-61
2021/09/22 08:17:23;;;;;;;5.63;3.85;;;13.50;65.00;;;;;;5001476;28;20392;-61
2021/09/22 08:19:49;;;;;;;6.78;4.47;;;13.60;64.90;;;;;;5005256;28;20024;-60
2021/09/22 08:22:15;;;;;;;5.15;3.90;;;13.50;65.00;;;;;;5001309;28;20478;-61
2021/09/22 08:24:41;;;;;;;4.70;4.20;;;13.60;65.00;;;;;;4995226;28;20041;-61
2021/09/22 08:27:07;;;;;;;4.57;3.97;;;13.50;64.70;;;;;;5000702;28;20034;-62
2021/09/22 08:29:35;;;;;;;6.20;3.83;;;13.50;64.70;;;;;;5004134;28;20410;-61
2021/09/22 08:32:00;;;;;;;4.13;3.70;;;13.50;64.70;;;;;;4990436;28;20654;-61
2021/09/22 08:34:27;;;;;;;5.95;3.88;;;13.50;64.70;;;;;;4997663;28;20033;-61
2021/09/22 08:36:52;;;;;;;4.40;3.90;;;13.50;64.50;;;;;;4993565;28;20493;-61
2021/09/22 08:39:19;;;;;;;4.82;3.63;;;13.40;64.60;;;;;;4990816;28;20037;-61
2021/09/22 08:41:46;;;;;;;4.78;3.35;;;13.40;64.60;;;;;;4997705;28;20069;-62
2021/09/22 08:44:13;;;;;;;5.00;4.50;;;13.30;64.70;;;;;;5001859;28;20464;-61
2021/09/22 08:46:40;;;;;;;4.95;4.20;;;13.30;64.80;;;;;;5002598;28;20038;-61
2021/09/22 08:49:07;;;;;;;6.95;5.20;;;13.30;64.90;;;;;;4999984;28;20048;-61
2021/09/22 08:51:35;;;;;;;7.18;5.93;;;13.30;64.90;;;;;;4997433;28;20027;-61
2021/09/22 08:54:01;;;;;;;4.82;4.30;;;13.40;64.90;;;;;;4997949;28;20041;-61
2021/09/22 08:56:27;;;;;;;4.85;3.95;;;13.50;64.60;;;;;;5001561;28;20026;-62
2021/09/22 08:58:53;;;;;;;4.38;3.78;;;13.60;64.70;;;;;;4992691;28;20030;-62
2021/09/22 09:01:21;;;;;;;4.00;3.47;;;13.70;64.60;;;;;;4997343;28;20108;-62
2021/09/22 09:03:48;;;;;;;4.25;3.25;;;13.80;64.50;;;;;;4999012;28;20109;-61
2021/09/22 09:06:24;;;;;;;3.58;3.22;;;13.90;64.20;;;;;;4997983;28;20846;-61
2021/09/22 09:08:55;;;;;;;4.32;3.70;;;14.10;63.90;;;;;;4998993;28;20104;-61
2021/09/22 09:11:31;;;;;;;4.32;3.55;;;14.20;63.40;;;;;;4997757;28;20037;-61
2021/09/22 09:13:59;;;;;;;4.38;3.33;;;14.20;63.30;;;;;;5003228;28;20537;-61
2021/09/22 09:16:36;;;;;;;4.32;3.72;;;14.30;63.40;;;;;;5002485;28;20480;-62
2021/09/22 09:19:09;;;;;;;4.60;4.15;;;14.40;63.20;;;;;;5000159;28;20030;-62
2021/09/22 09:22:09;;;;;;;4.90;4.40;;;14.50;62.90;;;;;;5001650;28;20060;-62
2021/09/22 09:24:46;;;;;;;4.78;4.28;;;14.50;62.40;;;;;;5000695;28;20145;-62
2021/09/22 09:27:24;;;;;;;5.07;4.57;;;14.50;62.30;;;;;;5003338;28;20034;-61
2021/09/22 09:29:55;;;;;;;5.30;4.80;;;14.50;62.10;;;;;;5002609;28;20057;-60
2021/09/22 09:32:25;;;;;;;5.78;4.82;;;14.50;62.10;;;;;;5004997;28;20458;-61
2021/09/22 09:35:14;;;;;;;5.80;5.20;;;14.50;62.20;;;;;;4999212;28;20053;-60
2021/09/22 09:37:51;;;;;;;5.55;4.70;;;14.60;62.00;;;;;;5002625;28;20036;-62
2021/09/22 09:40:20;;;;;;;5.10;4.50;;;14.60;62.20;;;;;;5000294;28;20026;-62
2021/09/22 09:42:47;;;;;;;5.65;4.25;;;14.60;62.40;;;;;;5004289;28;20026;-61
2021/09/22 09:45:14;;;;;;;4.90;4.40;;;14.70;62.20;;;;;;5000598;28;20033;-62
2021/09/22 09:47:42;;;;;;;4.57;4.03;;;14.80;62.20;;;;;;5000372;28;20030;-61
2021/09/22 09:50:22;;;;;;;4.57;4.07;;;14.80;61.90;;;;;;5004083;28;20121;-62
2021/09/22 09:52:57;;;;;;;4.70;3.97;;;14.90;61.80;;;;;;5001844;28;20030;-61
2021/09/22 09:55:25;;;;;;;5.38;4.88;;;14.90;61.80;;;;;;5002636;28;20038;-61
2021/09/22 09:57:53;;;;;;;4.00;3.58;;;14.90;61.70;;;;;;5013128;28;20026;-61
2021/09/22 10:00:43;;;;;;;4.35;3.58;;;15.00;61.60;;;;;;5007789;28;20029;-62
2021/09/22 10:03:14;;;;;;;3.85;3.40;;;15.00;61.40;;;;;;5004796;28;20031;-62
2021/09/22 10:05:40;;;;;;;4.10;3.70;;;15.00;60.90;;;;;;5006643;28;20414;-62
2021/09/22 10:08:10;;;;;;;4.30;3.65;;;14.90;60.80;;;;;;5003986;28;20039;-61
2021/09/22 10:10:36;;;;;;;3.85;3.45;;;14.80;61.60;;;;;;5001105;28;20535;-60
2021/09/22 10:13:02;;;;;;;4.03;3.63;;;14.70;60.90;;;;;;5000889;28;20095;-61
2021/09/22 10:15:33;;;;;;;3.83;3.17;;;14.70;61.00;;;;;;4996408;28;20113;-62
2021/09/22 10:18:00;;;;;;;3.80;3.40;;;14.60;61.00;;;;;;5004108;28;20403;-62
2021/09/22 10:20:26;;;;;;;3.40;3.10;;;14.60;60.90;;;;;;4999177;28;20038;-62
2021/09/22 10:22:52;;;;;;;3.50;3.20;;;14.50;61.70;;;;;;5007688;28;20025;-62
2021/09/22 10:25:21;;;;;;;3.70;3.40;;;14.50;61.10;;;;;;5011105;28;20033;-61
2021/09/22 10:27:48;;;;;;;3.88;3.13;;;14.40;61.00;;;;;;5004734;28;20068;-61
2021/09/22 10:30:15;;;;;;;3.58;2.90;;;14.40;61.30;;;;;;5008561;28;20564;-61
2021/09/22 10:32:48;;;;;;;3.40;3.10;;;14.40;61.50;;;;;;5003603;28;20536;-61
2021/09/22 10:35:26;;;;;;;4.30;3.20;;;14.40;61.30;;;;;;5002307;28;20059;-61
2021/09/22 10:37:56;;;;;;;3.83;3.15;;;14.50;61.40;;;;;;5002862;28;20278;-62
2021/09/22 10:40:34;;;;;;;4.07;3.20;;;14.50;61.20;;;;;;5008539;28;20720;-62
2021/09/22 10:43:15;;;;;;;4.10;3.70;;;14.50;61.80;;;;;;4996953;28;20065;-62
2021/09/22 10:45:45;;;;;;;3.30;3.00;;;14.40;60.70;;;;;;4999869;28;20087;-62
2021/09/22 10:48:20;;;;;;;2.80;2.50;;;14.40;60.80;;;;;;5005323;28;20030;-62
2021/09/22 10:50:50;;;;;;;3.72;2.83;;;14.30;60.80;;;;;;5004615;28;20635;-61
2021/09/22 10:53:36;;;;;;;3.22;2.78;;;14.20;60.70;;;;;;4999708;28;20461;-61
2021/09/22 10:56:07;;;;;;;2.80;2.60;;;14.20;60.60;;;;;;5004939;28;20029;-62
2021/09/22 10:58:51;;;;;;;3.10;2.70;;;14.00;60.80;;;;;;5005688;28;20037;-61
2021/09/22 11:01:35;;;;;;;3.08;2.60;;;14.00;61.20;;;;;;5006572;28;20041;-62
2021/09/22 11:04:01;;;;;;;2.45;2.25;;;13.90;61.90;;;;;;5000946;28;20026;-62
2021/09/22 11:06:45;;;;;;;3.65;2.83;;;13.90;61.60;;;;;;5002264;28;20076;-62
2021/09/22 11:09:18;;;;;;;3.60;3.20;;;13.90;61.60;;;;;;5003656;28;20521;-63
2021/09/22 11:11:56;;;;;;;4.25;3.40;;;13.90;61.70;;;;;;5007863;28;20461;-61
2021/09/22 11:14:30;;;;;;;3.55;3.05;;;13.90;61.80;;;;;;5007143;28;20033;-62
2021/09/22 11:17:26;;;;;;;4.00;3.03;;;14.00;62.00;;;;;;5003801;28;20038;-62
2021/09/22 11:20:00;;;;;;;6.35;3.42;;;14.20;62.00;;;;;;4986659;28;20034;-63
2021/09/22 11:22:29;;;;;;;3.53;3.20;;;14.30;61.80;;;;;;5005016;28;20036;-62
2021/09/22 11:25:07;;;;;;;3.38;2.97;;;14.40;61.50;;;;;;5002333;28;20049;-62
2021/09/22 11:27:33;;;;;;;3.60;3.05;;;14.40;61.30;;;;;;5003675;28;20034;-64
2021/09/22 11:30:03;;;;;;;3.25;2.95;;;14.40;61.20;;;;;;5004683;28;20040;-61
2021/09/22 11:32:42;;;;;;;3.13;2.83;;;14.40;61.10;;;;;;5007238;28;21012;-63
2021/09/22 11:35:11;;;;;;;2.95;2.50;;;14.30;61.00;;;;;;5009485;28;20056;-63
2021/09/22 11:37:44;;;;;;;3.05;2.75;;;14.30;60.80;;;;;;5007178;28;20026;-63
2021/09/22 11:40:13;;;;;;;3.15;2.67;;;14.30;60.70;;;;;;5006588;28;20047;-63
2021/09/22 11:42:41;;;;;;;2.88;2.67;;;14.20;60.60;;;;;;5003446;28;20029;-63
2021/09/22 11:45:09;;;;;;;2.90;2.60;;;14.20;60.80;;;;;;5002160;28;20440;-63
2021/09/22 11:47:34;;;;;;;3.40;2.45;;;14.10;60.90;;;;;;5008791;28;20068;-63
2021/09/22 11:50:00;;;;;;;3.10;2.90;;;14.10;60.80;;;;;;5009246;28;20033;-63
2021/09/22 11:52:26;;;;;;;2.88;2.67;;;14.00;60.80;;;;;;5004596;28;20561;-63
2021/09/22 11:54:59;;;;;;;2.95;2.65;;;13.90;60.90;;;;;;5000257;28;20025;-63
2021/09/22 11:57:28;;;;;;;2.83;2.63;;;13.90;61.30;;;;;;4997596;28;20458;-61
2021/09/22 11:59:55;;;;;;;3.30;2.63;;;13.80;61.40;;;;;;5001814;28;20042;-61
2021/09/22 12:02:23;;;;;;;3.10;2.80;;;13.80;61.50;;;;;;4994123;28;20031;-62
2021/09/22 12:04:49;;;;;;;4.45;3.63;;;13.80;61.70;;;;;;4998814;28;20595;-62
2021/09/22 12:07:16;;;;;;;3.95;3.10;;;13.80;61.60;;;;;;4997587;28;20033;-62
2021/09/22 12:09:44;;;;;;;3.20;2.90;;;13.80;61.50;;;;;;5000872;28;20046;-62
2021/09/22 12:12:20;;;;;;;3.25;2.92;;;13.80;61.30;;;;;;5003796;28;20095;-63
2021/09/22 12:14:57;;;;;;;2.78;2.33;;;13.80;61.30;;;;;;5001197;28;20022;-64
2021/09/22 12:17:28;;;;;;;2.53;2.30;;;13.80;61.20;;;;;;5002939;28;20029;-63
2021/09/22 12:19:54;;;;;;;2.70;2.50;;;13.70;61.20;;;;;;4988796;28;20381;-64
2021/09/22 12:22:27;;;;;;;2.60;2.35;;;13.70;61.50;;;;;;4999494;28;21265;-63
2021/09/22 12:24:53;;;;;;;2.17;1.98;;;13.70;61.50;;;;;;4993572;28;20064;-63
2021/09/22 12:27:22;;;;;;;2.90;2.50;;;13.70;61.60;;;;;;4997710;28;20109;-63
2021/09/22 12:29:56;;;;;;;2.30;2.10;;;13.70;61.60;;;;;;5000084;28;20036;-62
2021/09/22 12:32:29;;;;;;;2.53;2.33;;;13.70;61.50;;;;;;5002535;28;20129;-62
2021/09/22 12:34:56;;;;;;;2.45;2.25;;;13.70;61.50;;;;;;5000227;28;20057;-62
2021/09/22 12:37:29;;;;;;;2.67;2.40;;;13.70;61.70;;;;;;4998607;28;20580;-63
2021/09/22 12:39:56;;;;;;;2.67;2.45;;;13.70;61.70;;;;;;5005154;28;20042;-63
2021/09/22 12:42:26;;;;;;;2.72;2.15;;;13.70;61.80;;;;;;5005792;28;20041;-62
2021/09/22 12:45:01;;;;;;;2.88;2.55;;;13.70;61.70;;;;;;5001398;28;20021;-62
2021/09/22 12:47:31;;;;;;;3.13;2.83;;;13.60;61.70;;;;;;4996315;28;20037;-63
2021/09/22 12:50:04;;;;;;;3.00;2.70;;;13.60;61.70;;;;;;4999592;28;22530;-63